Wanneroo, Western Australia

10:23 AM AWST on February 11, 2016 (GMT +0800)
Ocean Reef | | Change Station
CLOSE
Current Station
Personal Weather Station
Location: Ocean Reef, Western Australia
Elevation: 90 ft
Nearby Weather Stations

Elev 90 ft 31.74 °S, 115.73 °E | Updated 9 seconds ago

Clear
Clear
77.6 °F
Feels Like 80 °F
N
4.0
Wind Variable Wind from WSW
Gusts 7.0 mph

Today
High -- | Low -- °F
--% Chance of Precip.
Yesterday
High -- | Low -- °F
Precip. -- in
Pressure 29.92 in
Visibility -9999.0 miles
Clouds
Heat Index 80 °F
Dew Point 72 °F
Humidity 82%
Rainfall 0.00 in
Snow Depth Not available.
5:50 AM 7:11 PM
Waxing Crescent, 8% visible
METAR YPPH 110200Z 32006KT CAVOK 31/18 Q1013 NOSIG
Pressure 29.92 in
Visibility -9999.0 miles
Clouds
Heat Index 80 °F
Dew Point 72 °F
Humidity 82%
Rainfall 0.00 in
Snow Depth Not available.
5:50 AM 7:11 PM
Waxing Crescent, 8% visible
METAR YPPH 110200Z 32006KT CAVOK 31/18 Q1013 NOSIG

10-Day Weather Forecast

Almanac

Astronomy

Feb. 11, 2016 Rise Set
Actual Time
Civil Twilight
Nautical Twilight
Astronomical Twilight
Moon
Length of Visible Light
Length of Day
Tomorrow will be .
, % of the Moon is Illuminated

Today's Extremes

Country Highs Country Lows

Community

WunderPhotos

Upload Photos

1,891,984 photos uploaded!

WunderBlog® & News

Nearby

Air Quality

  Air Quality AQ Index Pollutant
Not available.

Snow Depth

Station Depth Elevation

Earthquake Activity

City Distance Mag. Time & Date
Minimum magnitude displayed is 2.5.

Coastal Water Temperatures

Place Temperature

Stations

Nearby Weather Stations

Station Location Temp. Windchill Dew Point Humidity Wind Precip. Elev Updated Type